ISABELLA DAM (ISB)

Elevation: 2635' · KERN R basin · Operator: US Army Corps of Engineers

Provisional data, subject to change.
Query executed Tuesday at 4:04:49   clock

Select a sensor type for a plot of data.
Note: Reservoir Flows are daily averages.

Earlier

Date RES ELE    STORAGE    RES CHG    TOC STO    ABV TOC    OUTFLOW    INFLOW    FNF    PPT INC    PPTINC4    TEMP MN    TEMP MX    WINDLEN    EVP PAN   
 FEET   AF   AF   AF   AF   CFS   CFS   CFS   INCHES   INCHES   DEG F   DEG F   MILES   INCHES  
11/07/2016 2544.05 89577 -39 170000 -80423 160 166 166 0.00 0.00 48 79 140 0.16
11/08/2016 2544.03 89499 -78 170000 -80501 160 164 164 0.00 0.00 52 84 275 0.28
11/09/2016 2544.01 89422 -77 170000 -80578 160 159 159 0.00 0.00 52 82 241 0.24
11/10/2016 2543.99 89344 -78 170000 -80656 160 148 148 0.00 0.00 50 81 134 0.17
11/11/2016 2543.97 89267 -77 170000 -80733 160 145 145 0.00 0.00 48 78 119 0.15
11/12/2016 2543.95 89189 -- 170000 -80811 160 138 138 0.00 0.00 10 22 90 0.11
11/13/2016 2543.93 89112 -- 170000 -80888 160 142 142 0.02 0.00 7 25 113 0.14
11/14/2016 2543.91 89034 -78 170000 -80966 151 133 133 0.00 0.00 7 25 102 0.13
11/15/2016 2543.87 88880 -- 170000 -81120 151 103 103 0.00 0.00 7 26 196 0.19
11/16/2016 2543.85 88802 -78 170000 -81198 115 92 138 e 0.00 0.00 6 14 417 0.10
11/17/2016 2543.88 88918 116 170000 -81082 144 223 138 e 0.00 0.00 2 16 199 0.13
11/18/2016 2543.84 88764 -154 170000 -81236 137 98 138 e 0.00 0.00 5 19 402 0.25
11/19/2016 2543.82 88687 -- 170000 -81313 137 125 125 0.00 0.00 4 21 185 0.17
11/20/2016 2543.83 88725 -- 170000 -81275 137 175 175 0.45 0.00 7 18 152 0.12
11/21/2016 2543.84 88764 39 170000 -81236 137 168 168 0.15 0.29 7 13 268 0.07
11/22/2016 2543.85 88802 38 170000 -81198 137 171 171 0.01 0.01 4 17 164 0.10
11/23/2016 2543.84 88764 -38 170000 -81236 137 132 132 0.00 0.00 4 14 308 0.09
11/24/2016 2543.83 88725 -39 170000 -81275 141 140 152 0.00 0.00 2 17 202 0.12
11/25/2016 2543.81 88648 -77 170000 -81352 150 131 143 0.00 0.00 1 17 169 0.13
11/26/2016 2543.77 88494 -154 170000 -81506 155 98 111 0.15 0.00 2 16 281 0.14
11/27/2016 2543.80 88610 116 170000 -81390 166 234 248 1.58 0.41 4 8 387 0.06
11/28/2016 2543.78 88533 -77 170000 -81467 167 137 137 0.01 0.63 4 8 419 0.05
11/29/2016 2543.78 88533 0 170000 -81467 161 176 176 0.01 0.01 3 14 166 0.10
11/30/2016 2543.76 88455 -78 170000 -81545 157 131 131 0.00 0.00 1 13 177 0.09
12/01/2016 2543.75 88417 -38 170000 -81583 151 142 142 0.00 0.00 2 11 178 0.07
12/02/2016 2543.75 88417 0 170000 -81583 151 162 162 0.00 0.00 1 11 160 0.08
12/03/2016 2543.74 88379 -38 170000 -81621 151 144 144 0.00 0.00 -1 14 102 0.08
12/04/2016 2543.67 88109 -270 170000 -81891 154 39 39 0.00 0.00 0 18 230 0.14
12/05/2016 2543.67 88109 0 170000 -- 161 -- -- 0.00 0.00 6 13 405 0.13
12/06/2016 -- -- -- -- -- -- -- -- -- -- -- -- -- --

Later | Latest

Warning! This data is preliminary and subject to revision.

Show ISB Map | Plot ISB Data | 1 Month ISB Data | Real-Time ISB Data | ISB Info